Terminal Aerodrome Forecast
Issued by NWS Albany, NY

Home | Current Version | Previous Version | Text Only | Print | Product List | Glossary On
Versions: 1 2 3 4 5 6 7 8 9 10 11 12 13 14 15 16 17 18 19
000
FTUS41 KALY 301120
TAFALB
TAF
KALB 301120Z 3012/3112 17008KT P6SM SCT070 BKN250
     FM301500 18009KT P6SM VCSH BKN040
     FM301700 24008KT 3SM SHRA BR VCTS SCT015 OVC050CB
     FM302000 26007KT P6SM BKN045
     FM310000 23004KT P6SM FEW045=

USA.gov is the U.S. government's official web portal to all federal, state and local government web resources and services.